sensor_id;sensor_type;location;lat;lon;timestamp;P1;durP1;ratioP1;P2;durP2;ratioP2
50319;SDS011;36226;53.464;9.852;2022-09-09T00:01:54;18.90;;;13.23;;
50319;SDS011;36226;53.464;9.852;2022-09-09T00:04:37;16.33;;;12.20;;
50319;SDS011;36226;53.464;9.852;2022-09-09T00:09:45;20.58;;;13.95;;
50319;SDS011;36226;53.464;9.852;2022-09-09T00:14:55;25.63;;;15.70;;
50319;SDS011;36226;53.464;9.852;2022-09-09T00:20:20;23.23;;;14.13;;
50319;SDS011;36226;53.464;9.852;2022-09-09T00:22:54;19.95;;;13.65;;
50319;SDS011;36226;53.464;9.852;2022-09-09T00:25:23;20.13;;;12.77;;
50319;SDS011;36226;53.464;9.852;2022-09-09T00:27:53;19.70;;;13.63;;
50319;SDS011;36226;53.464;9.852;2022-09-09T00:30:26;15.43;;;11.25;;
50319;SDS011;36226;53.464;9.852;2022-09-09T00:32:54;17.77;;;12.75;;
50319;SDS011;36226;53.464;9.852;2022-09-09T00:35:30;18.02;;;11.70;;
50319;SDS011;36226;53.464;9.852;2022-09-09T00:38:10;16.55;;;11.98;;
50319;SDS011;36226;53.464;9.852;2022-09-09T00:41:21;17.40;;;11.68;;
50319;SDS011;36226;53.464;9.852;2022-09-09T00:43:49;15.80;;;11.10;;
50319;SDS011;36226;53.464;9.852;2022-09-09T00:52:02;15.88;;;11.18;;
50319;SDS011;36226;53.464;9.852;2022-09-09T00:57:28;22.13;;;12.65;;
50319;SDS011;36226;53.464;9.852;2022-09-09T01:02:28;18.10;;;11.73;;
50319;SDS011;36226;53.464;9.852;2022-09-09T01:04:59;15.77;;;10.55;;
50319;SDS011;36226;53.464;9.852;2022-09-09T01:07:28;14.77;;;10.85;;
50319;SDS011;36226;53.464;9.852;2022-09-09T01:09:57;12.90;;;9.48;;
50319;SDS011;36226;53.464;9.852;2022-09-09T01:12:24;10.77;;;8.30;;
50319;SDS011;36226;53.464;9.852;2022-09-09T01:15:21;13.40;;;9.32;;
50319;SDS011;36226;53.464;9.852;2022-09-09T01:17:50;11.95;;;9.20;;
50319;SDS011;36226;53.464;9.852;2022-09-09T01:20:20;12.40;;;9.60;;
50319;SDS011;36226;53.464;9.852;2022-09-09T01:25:20;12.25;;;8.57;;
50319;SDS011;36226;53.464;9.852;2022-09-09T01:30:17;10.20;;;7.85;;
50319;SDS011;36226;53.464;9.852;2022-09-09T01:32:44;10.48;;;7.82;;
50319;SDS011;36226;53.464;9.852;2022-09-09T01:37:48;11.75;;;8.02;;
50319;SDS011;36226;53.464;9.852;2022-09-09T01:40:14;10.65;;;7.93;;
50319;SDS011;36226;53.464;9.852;2022-09-09T01:42:39;11.93;;;8.98;;
50319;SDS011;36226;53.464;9.852;2022-09-09T01:45:05;11.70;;;8.55;;
50319;SDS011;36226;53.464;9.852;2022-09-09T01:47:31;8.77;;;7.07;;
50319;SDS011;36226;53.464;9.852;2022-09-09T01:49:56;11.20;;;8.20;;
50319;SDS011;36226;53.464;9.852;2022-09-09T01:52:22;11.05;;;7.57;;
50319;SDS011;36226;53.464;9.852;2022-09-09T01:54:47;13.27;;;7.25;;
50319;SDS011;36226;53.464;9.852;2022-09-09T02:07:58;14.68;;;8.32;;
50319;SDS011;36226;53.464;9.852;2022-09-09T02:13:00;8.82;;;7.28;;
50319;SDS011;36226;53.464;9.852;2022-09-09T02:19:14;12.25;;;8.20;;
50319;SDS011;36226;53.464;9.852;2022-09-09T02:21:12;10.63;;;8.48;;
50319;SDS011;36226;53.464;9.852;2022-09-09T02:23:39;13.07;;;9.55;;
50319;SDS011;36226;53.464;9.852;2022-09-09T02:26:06;13.30;;;8.88;;
50319;SDS011;36226;53.464;9.852;2022-09-09T02:28:33;15.80;;;9.68;;
50319;SDS011;36226;53.464;9.852;2022-09-09T02:30:59;12.45;;;8.75;;
50319;SDS011;36226;53.464;9.852;2022-09-09T02:33:26;13.52;;;9.75;;
50319;SDS011;36226;53.464;9.852;2022-09-09T02:35:54;10.95;;;8.63;;
50319;SDS011;36226;53.464;9.852;2022-09-09T02:38:21;13.52;;;9.30;;
50319;SDS011;36226;53.464;9.852;2022-09-09T02:40:50;13.60;;;10.10;;
50319;SDS011;36226;53.464;9.852;2022-09-09T02:43:15;14.07;;;10.23;;
50319;SDS011;36226;53.464;9.852;2022-09-09T02:46:03;14.38;;;10.35;;
50319;SDS011;36226;53.464;9.852;2022-09-09T02:48:35;13.05;;;9.80;;
50319;SDS011;36226;53.464;9.852;2022-09-09T02:51:24;15.95;;;11.18;;
50319;SDS011;36226;53.464;9.852;2022-09-09T02:56:56;12.48;;;8.85;;
50319;SDS011;36226;53.464;9.852;2022-09-09T02:59:27;17.60;;;11.35;;
50319;SDS011;36226;53.464;9.852;2022-09-09T03:01:52;14.55;;;10.57;;
50319;SDS011;36226;53.464;9.852;2022-09-09T03:04:18;14.80;;;9.63;;
50319;SDS011;36226;53.464;9.852;2022-09-09T03:06:43;13.07;;;9.90;;
50319;SDS011;36226;53.464;9.852;2022-09-09T03:09:09;14.38;;;10.38;;
50319;SDS011;36226;53.464;9.852;2022-09-09T03:11:35;12.30;;;9.48;;
50319;SDS011;36226;53.464;9.852;2022-09-09T03:14:01;15.07;;;10.55;;
50319;SDS011;36226;53.464;9.852;2022-09-09T03:16:27;12.70;;;9.80;;
50319;SDS011;36226;53.464;9.852;2022-09-09T03:18:52;12.73;;;9.57;;
50319;SDS011;36226;53.464;9.852;2022-09-09T03:23:45;12.55;;;8.65;;
50319;SDS011;36226;53.464;9.852;2022-09-09T03:26:10;11.45;;;8.25;;
50319;SDS011;36226;53.464;9.852;2022-09-09T03:28:36;11.23;;;8.45;;
50319;SDS011;36226;53.464;9.852;2022-09-09T03:31:02;11.88;;;8.70;;
50319;SDS011;36226;53.464;9.852;2022-09-09T03:33:28;11.70;;;8.23;;
50319;SDS011;36226;53.464;9.852;2022-09-09T03:35:54;13.48;;;8.90;;
50319;SDS011;36226;53.464;9.852;2022-09-09T03:38:21;13.38;;;8.65;;
50319;SDS011;36226;53.464;9.852;2022-09-09T03:40:53;14.27;;;9.27;;
50319;SDS011;36226;53.464;9.852;2022-09-09T03:43:21;14.13;;;8.07;;
50319;SDS011;36226;53.464;9.852;2022-09-09T03:45:46;12.75;;;8.50;;
50319;SDS011;36226;53.464;9.852;2022-09-09T03:48:12;11.48;;;8.02;;
50319;SDS011;36226;53.464;9.852;2022-09-09T03:50:43;14.40;;;7.70;;
50319;SDS011;36226;53.464;9.852;2022-09-09T03:53:12;11.30;;;7.97;;
50319;SDS011;36226;53.464;9.852;2022-09-09T03:55:37;10.57;;;7.53;;
50319;SDS011;36226;53.464;9.852;2022-09-09T03:58:02;10.05;;;6.80;;
50319;SDS011;36226;53.464;9.852;2022-09-09T04:00:28;12.05;;;7.57;;
50319;SDS011;36226;53.464;9.852;2022-09-09T04:02:55;10.75;;;7.32;;
50319;SDS011;36226;53.464;9.852;2022-09-09T04:05:20;10.95;;;6.93;;
50319;SDS011;36226;53.464;9.852;2022-09-09T04:07:45;7.65;;;5.75;;
50319;SDS011;36226;53.464;9.852;2022-09-09T04:10:11;11.05;;;6.97;;
50319;SDS011;36226;53.464;9.852;2022-09-09T04:12:36;10.30;;;6.90;;
50319;SDS011;36226;53.464;9.852;2022-09-09T04:15:07;8.23;;;6.05;;
50319;SDS011;36226;53.464;9.852;2022-09-09T04:17:35;11.57;;;6.15;;
50319;SDS011;36226;53.464;9.852;2022-09-09T04:20:01;7.53;;;5.43;;
50319;SDS011;36226;53.464;9.852;2022-09-09T04:22:30;7.38;;;5.35;;
50319;SDS011;36226;53.464;9.852;2022-09-09T04:24:55;7.55;;;5.00;;
50319;SDS011;36226;53.464;9.852;2022-09-09T04:27:21;8.13;;;5.13;;
50319;SDS011;36226;53.464;9.852;2022-09-09T04:29:46;6.18;;;5.18;;
50319;SDS011;36226;53.464;9.852;2022-09-09T04:32:11;6.60;;;5.10;;
50319;SDS011;36226;53.464;9.852;2022-09-09T04:34:37;6.97;;;4.72;;
50319;SDS011;36226;53.464;9.852;2022-09-09T04:37:02;6.80;;;4.53;;
50319;SDS011;36226;53.464;9.852;2022-09-09T04:39:27;6.03;;;4.13;;
50319;SDS011;36226;53.464;9.852;2022-09-09T04:41:53;8.38;;;5.03;;
50319;SDS011;36226;53.464;9.852;2022-09-09T04:44:18;5.93;;;3.90;;
50319;SDS011;36226;53.464;9.852;2022-09-09T04:46:44;12.48;;;4.18;;
50319;SDS011;36226;53.464;9.852;2022-09-09T04:49:10;4.75;;;3.83;;
50319;SDS011;36226;53.464;9.852;2022-09-09T04:51:35;6.55;;;4.00;;
50319;SDS011;36226;53.464;9.852;2022-09-09T04:54:00;7.65;;;3.97;;
50319;SDS011;36226;53.464;9.852;2022-09-09T04:56:25;6.65;;;4.03;;
50319;SDS011;36226;53.464;9.852;2022-09-09T04:58:54;6.63;;;3.38;;
50319;SDS011;36226;53.464;9.852;2022-09-09T05:01:20;4.55;;;3.47;;
50319;SDS011;36226;53.464;9.852;2022-09-09T05:03:47;5.15;;;3.22;;
50319;SDS011;36226;53.464;9.852;2022-09-09T05:06:19;4.70;;;3.30;;
50319;SDS011;36226;53.464;9.852;2022-09-09T05:08:45;7.07;;;3.08;;
50319;SDS011;36226;53.464;9.852;2022-09-09T05:11:18;3.90;;;2.50;;
50319;SDS011;36226;53.464;9.852;2022-09-09T05:13:44;6.22;;;3.10;;
50319;SDS011;36226;53.464;9.852;2022-09-09T05:16:10;4.50;;;2.67;;
50319;SDS011;36226;53.464;9.852;2022-09-09T05:18:36;3.38;;;2.75;;
50319;SDS011;36226;53.464;9.852;2022-09-09T05:21:02;5.13;;;2.72;;
50319;SDS011;36226;53.464;9.852;2022-09-09T05:23:28;6.50;;;2.85;;
50319;SDS011;36226;53.464;9.852;2022-09-09T05:25:54;4.40;;;2.38;;
50319;SDS011;36226;53.464;9.852;2022-09-09T05:28:21;5.50;;;3.05;;
50319;SDS011;36226;53.464;9.852;2022-09-09T05:30:54;5.75;;;2.88;;
50319;SDS011;36226;53.464;9.852;2022-09-09T05:33:20;4.25;;;2.60;;
50319;SDS011;36226;53.464;9.852;2022-09-09T05:35:46;3.67;;;2.55;;
50319;SDS011;36226;53.464;9.852;2022-09-09T05:38:11;4.03;;;2.42;;
50319;SDS011;36226;53.464;9.852;2022-09-09T05:40:37;4.93;;;2.47;;
50319;SDS011;36226;53.464;9.852;2022-09-09T05:43:02;3.90;;;3.00;;
50319;SDS011;36226;53.464;9.852;2022-09-09T05:45:28;5.60;;;3.00;;
50319;SDS011;36226;53.464;9.852;2022-09-09T05:47:53;6.72;;;2.83;;
50319;SDS011;36226;53.464;9.852;2022-09-09T05:50:18;5.25;;;2.58;;
50319;SDS011;36226;53.464;9.852;2022-09-09T05:52:44;7.35;;;3.40;;
50319;SDS011;36226;53.464;9.852;2022-09-09T05:55:09;5.30;;;3.05;;
50319;SDS011;36226;53.464;9.852;2022-09-09T05:57:34;6.85;;;3.03;;
50319;SDS011;36226;53.464;9.852;2022-09-09T06:00:00;6.78;;;3.13;;
50319;SDS011;36226;53.464;9.852;2022-09-09T06:02:25;5.90;;;3.38;;
50319;SDS011;36226;53.464;9.852;2022-09-09T06:04:50;8.45;;;3.67;;
50319;SDS011;36226;53.464;9.852;2022-09-09T06:07:16;6.18;;;3.20;;
50319;SDS011;36226;53.464;9.852;2022-09-09T06:09:42;3.95;;;2.80;;
50319;SDS011;36226;53.464;9.852;2022-09-09T06:12:07;5.95;;;3.35;;
50319;SDS011;36226;53.464;9.852;2022-09-09T06:14:33;6.80;;;2.97;;
50319;SDS011;36226;53.464;9.852;2022-09-09T06:16:59;6.00;;;3.40;;
50319;SDS011;36226;53.464;9.852;2022-09-09T06:19:24;5.72;;;3.25;;
50319;SDS011;36226;53.464;9.852;2022-09-09T06:21:51;7.28;;;3.55;;
50319;SDS011;36226;53.464;9.852;2022-09-09T06:24:16;7.20;;;3.92;;
50319;SDS011;36226;53.464;9.852;2022-09-09T06:26:42;8.95;;;3.45;;
50319;SDS011;36226;53.464;9.852;2022-09-09T06:29:07;6.75;;;3.25;;
50319;SDS011;36226;53.464;9.852;2022-09-09T06:31:34;7.10;;;3.42;;
50319;SDS011;36226;53.464;9.852;2022-09-09T06:34:01;8.05;;;3.55;;
50319;SDS011;36226;53.464;9.852;2022-09-09T06:36:29;6.80;;;3.10;;
50319;SDS011;36226;53.464;9.852;2022-09-09T06:38:58;7.82;;;2.80;;
50319;SDS011;36226;53.464;9.852;2022-09-09T06:41:25;5.22;;;3.55;;
50319;SDS011;36226;53.464;9.852;2022-09-09T06:43:51;4.28;;;3.13;;
50319;SDS011;36226;53.464;9.852;2022-09-09T06:46:18;6.35;;;3.30;;
50319;SDS011;36226;53.464;9.852;2022-09-09T06:48:45;4.13;;;3.10;;
50319;SDS011;36226;53.464;9.852;2022-09-09T06:51:13;5.70;;;2.92;;
50319;SDS011;36226;53.464;9.852;2022-09-09T06:53:41;5.50;;;3.08;;
50319;SDS011;36226;53.464;9.852;2022-09-09T06:58:39;5.43;;;3.25;;
50319;SDS011;36226;53.464;9.852;2022-09-09T07:01:08;7.60;;;3.40;;
50319;SDS011;36226;53.464;9.852;2022-09-09T07:03:33;6.15;;;2.88;;
50319;SDS011;36226;53.464;9.852;2022-09-09T07:06:00;6.45;;;2.97;;
50319;SDS011;36226;53.464;9.852;2022-09-09T07:08:26;8.38;;;2.90;;
50319;SDS011;36226;53.464;9.852;2022-09-09T07:10:52;7.78;;;3.22;;
50319;SDS011;36226;53.464;9.852;2022-09-09T07:13:24;4.30;;;3.05;;
50319;SDS011;36226;53.464;9.852;2022-09-09T07:15:50;3.45;;;3.08;;
50319;SDS011;36226;53.464;9.852;2022-09-09T07:18:16;4.55;;;3.13;;
50319;SDS011;36226;53.464;9.852;2022-09-09T07:20:41;4.03;;;2.60;;
50319;SDS011;36226;53.464;9.852;2022-09-09T07:23:06;5.07;;;2.58;;
50319;SDS011;36226;53.464;9.852;2022-09-09T07:25:32;5.55;;;3.05;;
50319;SDS011;36226;53.464;9.852;2022-09-09T07:27:57;6.00;;;3.22;;
50319;SDS011;36226;53.464;9.852;2022-09-09T07:30:22;3.67;;;2.75;;
50319;SDS011;36226;53.464;9.852;2022-09-09T07:32:50;4.60;;;3.00;;
50319;SDS011;36226;53.464;9.852;2022-09-09T07:35:16;5.55;;;3.05;;
50319;SDS011;36226;53.464;9.852;2022-09-09T07:37:41;4.43;;;3.25;;
50319;SDS011;36226;53.464;9.852;2022-09-09T07:40:08;5.70;;;3.25;;
50319;SDS011;36226;53.464;9.852;2022-09-09T07:42:33;4.53;;;3.00;;
50319;SDS011;36226;53.464;9.852;2022-09-09T07:44:59;5.60;;;2.95;;
50319;SDS011;36226;53.464;9.852;2022-09-09T07:47:24;4.78;;;2.90;;
50319;SDS011;36226;53.464;9.852;2022-09-09T07:49:49;6.68;;;2.90;;
50319;SDS011;36226;53.464;9.852;2022-09-09T07:52:15;7.38;;;3.08;;
50319;SDS011;36226;53.464;9.852;2022-09-09T07:54:41;7.00;;;2.97;;
50319;SDS011;36226;53.464;9.852;2022-09-09T07:57:06;4.15;;;2.78;;
50319;SDS011;36226;53.464;9.852;2022-09-09T07:59:32;7.05;;;2.95;;
50319;SDS011;36226;53.464;9.852;2022-09-09T08:01:58;4.80;;;2.80;;
50319;SDS011;36226;53.464;9.852;2022-09-09T08:04:24;6.40;;;2.60;;
50319;SDS011;36226;53.464;9.852;2022-09-09T08:06:53;6.95;;;3.20;;
50319;SDS011;36226;53.464;9.852;2022-09-09T08:09:20;5.93;;;2.80;;
50319;SDS011;36226;53.464;9.852;2022-09-09T08:11:45;4.53;;;2.88;;
50319;SDS011;36226;53.464;9.852;2022-09-09T08:14:12;4.90;;;2.42;;
50319;SDS011;36226;53.464;9.852;2022-09-09T08:16:42;4.88;;;2.88;;
50319;SDS011;36226;53.464;9.852;2022-09-09T08:19:09;4.78;;;2.40;;
50319;SDS011;36226;53.464;9.852;2022-09-09T08:21:35;3.33;;;2.50;;
50319;SDS011;36226;53.464;9.852;2022-09-09T08:24:03;5.15;;;2.30;;
50319;SDS011;36226;53.464;9.852;2022-09-09T08:26:34;3.88;;;2.42;;
50319;SDS011;36226;53.464;9.852;2022-09-09T08:29:01;5.00;;;1.88;;
50319;SDS011;36226;53.464;9.852;2022-09-09T08:31:32;4.55;;;2.20;;
50319;SDS011;36226;53.464;9.852;2022-09-09T08:33:59;4.22;;;1.90;;
50319;SDS011;36226;53.464;9.852;2022-09-09T08:36:26;8.70;;;3.53;;
50319;SDS011;36226;53.464;9.852;2022-09-09T08:38:53;2.78;;;1.95;;
50319;SDS011;36226;53.464;9.852;2022-09-09T08:50:05;2.97;;;1.80;;
50319;SDS011;36226;53.464;9.852;2022-09-09T08:52:50;3.85;;;1.67;;
50319;SDS011;36226;53.464;9.852;2022-09-09T08:58:04;4.55;;;1.40;;
50319;SDS011;36226;53.464;9.852;2022-09-09T09:06:47;2.88;;;0.95;;
50319;SDS011;36226;53.464;9.852;2022-09-09T09:09:26;4.20;;;1.17;;
50319;SDS011;36226;53.464;9.852;2022-09-09T09:11:56;3.75;;;1.00;;
50319;SDS011;36226;53.464;9.852;2022-09-09T09:14:25;3.53;;;1.20;;
50319;SDS011;36226;53.464;9.852;2022-09-09T09:19:19;2.13;;;0.90;;
50319;SDS011;36226;53.464;9.852;2022-09-09T09:21:49;3.65;;;1.15;;
50319;SDS011;36226;53.464;9.852;2022-09-09T09:26:50;2.67;;;0.80;;
50319;SDS011;36226;53.464;9.852;2022-09-09T09:29:18;4.60;;;0.85;;
50319;SDS011;36226;53.464;9.852;2022-09-09T09:31:55;4.63;;;1.00;;
50319;SDS011;36226;53.464;9.852;2022-09-09T09:34:22;3.33;;;0.90;;
50319;SDS011;36226;53.464;9.852;2022-09-09T09:36:56;2.25;;;1.00;;
50319;SDS011;36226;53.464;9.852;2022-09-09T09:39:26;2.58;;;0.90;;
50319;SDS011;36226;53.464;9.852;2022-09-09T09:41:55;2.33;;;0.63;;
50319;SDS011;36226;53.464;9.852;2022-09-09T09:44:26;2.65;;;0.80;;
50319;SDS011;36226;53.464;9.852;2022-09-09T09:47:12;3.45;;;0.80;;
50319;SDS011;36226;53.464;9.852;2022-09-09T09:49:39;2.05;;;0.75;;
50319;SDS011;36226;53.464;9.852;2022-09-09T09:52:17;1.40;;;0.73;;
50319;SDS011;36226;53.464;9.852;2022-09-09T09:54:46;2.80;;;0.80;;
50319;SDS011;36226;53.464;9.852;2022-09-09T09:57:12;2.47;;;0.70;;
50319;SDS011;36226;53.464;9.852;2022-09-09T09:59:39;9.65;;;0.80;;
50319;SDS011;36226;53.464;9.852;2022-09-09T10:02:06;1.77;;;0.57;;
50319;SDS011;36226;53.464;9.852;2022-09-09T10:04:42;2.05;;;0.60;;
50319;SDS011;36226;53.464;9.852;2022-09-09T10:07:18;2.08;;;0.52;;
50319;SDS011;36226;53.464;9.852;2022-09-09T10:09:46;2.45;;;0.50;;
50319;SDS011;36226;53.464;9.852;2022-09-09T10:15:24;2.08;;;0.43;;
50319;SDS011;36226;53.464;9.852;2022-09-09T10:32:31;1.17;;;0.50;;
50319;SDS011;36226;53.464;9.852;2022-09-09T10:35:11;1.20;;;0.50;;
50319;SDS011;36226;53.464;9.852;2022-09-09T10:40:14;2.53;;;0.70;;
50319;SDS011;36226;53.464;9.852;2022-09-09T10:42:45;2.00;;;0.68;;
50319;SDS011;36226;53.464;9.852;2022-09-09T10:47:58;2.92;;;1.00;;
50319;SDS011;36226;53.464;9.852;2022-09-09T10:53:13;2.00;;;0.90;;
50319;SDS011;36226;53.464;9.852;2022-09-09T10:55:45;2.08;;;0.90;;
50319;SDS011;36226;53.464;9.852;2022-09-09T10:58:35;2.25;;;0.80;;
50319;SDS011;36226;53.464;9.852;2022-09-09T11:01:10;2.50;;;0.98;;
50319;SDS011;36226;53.464;9.852;2022-09-09T11:03:40;4.50;;;1.23;;
50319;SDS011;36226;53.464;9.852;2022-09-09T11:06:07;6.85;;;1.13;;
50319;SDS011;36226;53.464;9.852;2022-09-09T11:08:38;5.57;;;0.95;;
50319;SDS011;36226;53.464;9.852;2022-09-09T11:13:42;3.60;;;1.00;;
50319;SDS011;36226;53.464;9.852;2022-09-09T11:21:37;3.92;;;0.90;;
50319;SDS011;36226;53.464;9.852;2022-09-09T11:24:11;3.40;;;1.00;;
50319;SDS011;36226;53.464;9.852;2022-09-09T11:26:51;3.72;;;0.80;;
50319;SDS011;36226;53.464;9.852;2022-09-09T11:32:00;7.47;;;1.17;;
50319;SDS011;36226;53.464;9.852;2022-09-09T11:37:57;6.03;;;1.35;;
50319;SDS011;36226;53.464;9.852;2022-09-09T11:40:33;2.13;;;0.90;;
50319;SDS011;36226;53.464;9.852;2022-09-09T11:43:12;4.03;;;0.90;;
50319;SDS011;36226;53.464;9.852;2022-09-09T11:45:40;2.40;;;0.70;;
50319;SDS011;36226;53.464;9.852;2022-09-09T11:48:22;3.78;;;0.80;;
50319;SDS011;36226;53.464;9.852;2022-09-09T11:51:10;4.60;;;1.10;;
50319;SDS011;36226;53.464;9.852;2022-09-09T11:53:53;3.22;;;0.80;;
50319;SDS011;36226;53.464;9.852;2022-09-09T11:56:27;4.32;;;1.00;;
50319;SDS011;36226;53.464;9.852;2022-09-09T11:58:56;1.58;;;0.80;;
50319;SDS011;36226;53.464;9.852;2022-09-09T12:01:33;1.67;;;0.98;;
50319;SDS011;36226;53.464;9.852;2022-09-09T12:09:29;4.18;;;1.27;;
50319;SDS011;36226;53.464;9.852;2022-09-09T12:12:21;2.58;;;0.90;;
50319;SDS011;36226;53.464;9.852;2022-09-09T12:14:57;2.00;;;0.93;;
50319;SDS011;36226;53.464;9.852;2022-09-09T12:17:26;2.15;;;0.60;;
50319;SDS011;36226;53.464;9.852;2022-09-09T12:20:00;3.75;;;0.82;;
50319;SDS011;36226;53.464;9.852;2022-09-09T12:22:35;1.98;;;0.75;;
50319;SDS011;36226;53.464;9.852;2022-09-09T12:25:12;3.30;;;0.73;;
50319;SDS011;36226;53.464;9.852;2022-09-09T12:27:46;1.88;;;0.63;;
50319;SDS011;36226;53.464;9.852;2022-09-09T12:30:15;2.30;;;0.73;;
50319;SDS011;36226;53.464;9.852;2022-09-09T12:32:41;3.38;;;0.90;;
50319;SDS011;36226;53.464;9.852;2022-09-09T12:35:10;3.40;;;0.80;;
50319;SDS011;36226;53.464;9.852;2022-09-09T12:37:38;2.78;;;0.77;;
50319;SDS011;36226;53.464;9.852;2022-09-09T12:40:15;4.32;;;0.80;;
50319;SDS011;36226;53.464;9.852;2022-09-09T12:42:45;4.38;;;1.10;;
50319;SDS011;36226;53.464;9.852;2022-09-09T12:45:18;2.25;;;0.70;;
50319;SDS011;36226;53.464;9.852;2022-09-09T12:47:46;2.33;;;0.80;;
50319;SDS011;36226;53.464;9.852;2022-09-09T12:50:23;1.95;;;1.00;;
50319;SDS011;36226;53.464;9.852;2022-09-09T12:52:51;5.30;;;1.02;;
50319;SDS011;36226;53.464;9.852;2022-09-09T12:55:27;5.07;;;1.20;;
50319;SDS011;36226;53.464;9.852;2022-09-09T12:57:55;3.22;;;1.20;;
50319;SDS011;36226;53.464;9.852;2022-09-09T13:00:21;5.57;;;1.38;;
50319;SDS011;36226;53.464;9.852;2022-09-09T13:02:52;3.67;;;1.00;;
50319;SDS011;36226;53.464;9.852;2022-09-09T13:05:20;2.97;;;0.60;;
50319;SDS011;36226;53.464;9.852;2022-09-09T13:07:47;1.52;;;0.50;;
50319;SDS011;36226;53.464;9.852;2022-09-09T13:10:14;1.35;;;0.40;;
50319;SDS011;36226;53.464;9.852;2022-09-09T13:12:40;2.08;;;0.50;;
50319;SDS011;36226;53.464;9.852;2022-09-09T13:15:15;1.38;;;0.40;;
50319;SDS011;36226;53.464;9.852;2022-09-09T13:17:48;4.03;;;1.98;;
50319;SDS011;36226;53.464;9.852;2022-09-09T13:20:18;0.77;;;0.57;;
50319;SDS011;36226;53.464;9.852;2022-09-09T13:22:44;1.70;;;0.70;;
50319;SDS011;36226;53.464;9.852;2022-09-09T13:27:36;1.60;;;0.70;;
50319;SDS011;36226;53.464;9.852;2022-09-09T13:35:34;2.50;;;1.00;;
50319;SDS011;36226;53.464;9.852;2022-09-09T13:38:07;2.38;;;1.60;;
50319;SDS011;36226;53.464;9.852;2022-09-09T13:40:34;3.13;;;1.40;;
50319;SDS011;36226;53.464;9.852;2022-09-09T13:43:00;6.55;;;1.60;;
50319;SDS011;36226;53.464;9.852;2022-09-09T13:45:27;3.13;;;1.70;;
50319;SDS011;36226;53.464;9.852;2022-09-09T13:47:53;5.00;;;1.55;;
50319;SDS011;36226;53.464;9.852;2022-09-09T13:50:26;2.92;;;1.63;;
50319;SDS011;36226;53.464;9.852;2022-09-09T13:52:56;1.92;;;1.25;;
50319;SDS011;36226;53.464;9.852;2022-09-09T13:55:28;4.70;;;1.75;;
50319;SDS011;36226;53.464;9.852;2022-09-09T13:58:01;3.50;;;1.52;;
50319;SDS011;36226;53.464;9.852;2022-09-09T14:00:32;7.68;;;1.75;;
50319;SDS011;36226;53.464;9.852;2022-09-09T14:02:59;3.40;;;1.52;;
50319;SDS011;36226;53.464;9.852;2022-09-09T14:05:32;4.55;;;1.60;;
50319;SDS011;36226;53.464;9.852;2022-09-09T14:07:58;3.10;;;1.70;;
50319;SDS011;36226;53.464;9.852;2022-09-09T14:10:25;2.28;;;1.52;;
50319;SDS011;36226;53.464;9.852;2022-09-09T14:12:50;4.10;;;1.80;;
50319;SDS011;36226;53.464;9.852;2022-09-09T14:15:16;2.78;;;1.80;;
50319;SDS011;36226;53.464;9.852;2022-09-09T14:17:41;2.88;;;1.65;;
50319;SDS011;36226;53.464;9.852;2022-09-09T14:20:10;3.67;;;1.65;;
50319;SDS011;36226;53.464;9.852;2022-09-09T14:22:36;3.97;;;1.67;;
50319;SDS011;36226;53.464;9.852;2022-09-09T14:25:04;3.97;;;1.52;;
50319;SDS011;36226;53.464;9.852;2022-09-09T14:27:31;5.28;;;2.00;;
50319;SDS011;36226;53.464;9.852;2022-09-09T14:29:56;3.80;;;1.70;;
50319;SDS011;36226;53.464;9.852;2022-09-09T14:32:22;2.85;;;1.70;;
50319;SDS011;36226;53.464;9.852;2022-09-09T14:34:48;3.10;;;2.00;;
50319;SDS011;36226;53.464;9.852;2022-09-09T14:37:19;3.60;;;1.83;;
50319;SDS011;36226;53.464;9.852;2022-09-09T14:39:45;2.95;;;1.63;;
50319;SDS011;36226;53.464;9.852;2022-09-09T14:42:16;3.67;;;1.80;;
50319;SDS011;36226;53.464;9.852;2022-09-09T14:44:42;4.30;;;1.63;;
50319;SDS011;36226;53.464;9.852;2022-09-09T14:47:07;3.75;;;1.88;;
50319;SDS011;36226;53.464;9.852;2022-09-09T14:49:34;4.68;;;1.83;;
50319;SDS011;36226;53.464;9.852;2022-09-09T14:51:59;2.38;;;1.67;;
50319;SDS011;36226;53.464;9.852;2022-09-09T14:54:28;3.65;;;1.55;;
50319;SDS011;36226;53.464;9.852;2022-09-09T14:56:54;4.57;;;1.83;;
50319;SDS011;36226;53.464;9.852;2022-09-09T14:59:22;4.45;;;1.80;;
50319;SDS011;36226;53.464;9.852;2022-09-09T15:01:47;4.25;;;1.75;;
50319;SDS011;36226;53.464;9.852;2022-09-09T15:04:12;3.70;;;1.67;;
50319;SDS011;36226;53.464;9.852;2022-09-09T15:06:39;2.17;;;1.80;;
50319;SDS011;36226;53.464;9.852;2022-09-09T15:09:07;4.35;;;1.95;;
50319;SDS011;36226;53.464;9.852;2022-09-09T15:11:34;3.55;;;2.40;;
50319;SDS011;36226;53.464;9.852;2022-09-09T15:14:04;3.53;;;2.08;;
50319;SDS011;36226;53.464;9.852;2022-09-09T15:16:30;4.00;;;1.90;;
50319;SDS011;36226;53.464;9.852;2022-09-09T15:18:57;3.28;;;1.95;;
50319;SDS011;36226;53.464;9.852;2022-09-09T15:21:25;4.18;;;1.80;;
50319;SDS011;36226;53.464;9.852;2022-09-09T15:23:53;2.53;;;1.50;;
50319;SDS011;36226;53.464;9.852;2022-09-09T15:26:19;4.30;;;1.60;;
50319;SDS011;36226;53.464;9.852;2022-09-09T15:28:45;2.92;;;1.90;;
50319;SDS011;36226;53.464;9.852;2022-09-09T15:36:17;3.85;;;1.75;;
50319;SDS011;36226;53.464;9.852;2022-09-09T15:38:43;3.13;;;1.45;;
50319;SDS011;36226;53.464;9.852;2022-09-09T15:41:08;4.25;;;1.70;;
50319;SDS011;36226;53.464;9.852;2022-09-09T15:43:50;3.95;;;1.90;;
50319;SDS011;36226;53.464;9.852;2022-09-09T15:46:26;2.72;;;1.45;;
50319;SDS011;36226;53.464;9.852;2022-09-09T15:48:52;1.73;;;1.00;;
50319;SDS011;36226;53.464;9.852;2022-09-09T15:51:43;4.43;;;1.70;;
50319;SDS011;36226;53.464;9.852;2022-09-09T15:54:11;2.20;;;1.40;;
50319;SDS011;36226;53.464;9.852;2022-09-09T15:56:38;4.53;;;1.33;;
50319;SDS011;36226;53.464;9.852;2022-09-09T15:59:04;4.10;;;1.10;;
50319;SDS011;36226;53.464;9.852;2022-09-09T16:01:33;1.88;;;1.27;;
50319;SDS011;36226;53.464;9.852;2022-09-09T16:03:59;2.50;;;1.10;;
50319;SDS011;36226;53.464;9.852;2022-09-09T16:06:25;2.53;;;1.20;;
50319;SDS011;36226;53.464;9.852;2022-09-09T16:08:52;7.13;;;3.20;;
50319;SDS011;36226;53.464;9.852;2022-09-09T16:11:22;2.97;;;1.05;;
50319;SDS011;36226;53.464;9.852;2022-09-09T16:13:49;4.20;;;1.10;;
50319;SDS011;36226;53.464;9.852;2022-09-09T16:16:16;2.50;;;1.35;;
50319;SDS011;36226;53.464;9.852;2022-09-09T16:18:48;2.17;;;1.13;;
50319;SDS011;36226;53.464;9.852;2022-09-09T16:21:24;2.83;;;1.00;;
50319;SDS011;36226;53.464;9.852;2022-09-09T16:23:54;2.47;;;1.05;;
50319;SDS011;36226;53.464;9.852;2022-09-09T16:26:20;1.27;;;0.80;;
50319;SDS011;36226;53.464;9.852;2022-09-09T16:28:46;2.28;;;0.90;;
50319;SDS011;36226;53.464;9.852;2022-09-09T16:31:16;3.13;;;1.10;;
50319;SDS011;36226;53.464;9.852;2022-09-09T16:33:43;1.80;;;1.02;;
50319;SDS011;36226;53.464;9.852;2022-09-09T16:36:09;2.83;;;0.90;;
50319;SDS011;36226;53.464;9.852;2022-09-09T16:38:39;1.90;;;1.00;;
50319;SDS011;36226;53.464;9.852;2022-09-09T16:41:05;2.25;;;1.10;;
50319;SDS011;36226;53.464;9.852;2022-09-09T16:43:33;1.67;;;1.15;;
50319;SDS011;36226;53.464;9.852;2022-09-09T16:45:58;3.28;;;1.05;;
50319;SDS011;36226;53.464;9.852;2022-09-09T16:48:36;3.60;;;1.00;;
50319;SDS011;36226;53.464;9.852;2022-09-09T16:51:05;2.63;;;1.00;;
50319;SDS011;36226;53.464;9.852;2022-09-09T16:53:32;3.08;;;1.17;;
50319;SDS011;36226;53.464;9.852;2022-09-09T16:56:06;2.30;;;1.00;;
50319;SDS011;36226;53.464;9.852;2022-09-09T16:58:36;2.83;;;1.10;;
50319;SDS011;36226;53.464;9.852;2022-09-09T17:01:02;1.52;;;0.88;;
50319;SDS011;36226;53.464;9.852;2022-09-09T17:03:28;2.85;;;0.90;;
50319;SDS011;36226;53.464;9.852;2022-09-09T17:05:54;2.80;;;1.30;;